createdAt,value
2022-10-24T00:01:15.301Z,138.15
2022-10-24T00:06:37.236Z,142.20
2022-10-24T00:11:59.189Z,129.98
2022-10-24T00:17:21.044Z,112.15
2022-10-24T00:22:43.004Z,44.75
2022-10-24T00:28:05.174Z,74.60
2022-10-24T00:33:27.317Z,81.53
2022-10-24T00:38:50.778Z,80.30
2022-10-24T00:44:21.069Z,55.47
2022-10-24T00:49:45.890Z,62.53
2022-10-24T00:55:08.587Z,92.90
2022-10-24T01:00:33.562Z,92.68
2022-10-24T01:06:04.351Z,158.90
2022-10-24T01:11:48.002Z,95.60
2022-10-24T01:17:25.322Z,103.07
2022-10-24T01:22:49.844Z,37.65
2022-10-24T01:28:16.048Z,44.08
2022-10-24T01:33:46.018Z,51.30
2022-10-24T01:39:14.821Z,47.28
2022-10-24T01:44:44.424Z,61.42
2022-10-24T01:50:10.328Z,100.45
2022-10-24T01:55:32.983Z,109.43
2022-10-24T02:01:00.419Z,124.25
2022-10-24T02:06:28.363Z,133.38
2022-10-24T02:11:52.961Z,166.82
2022-10-24T02:17:15.633Z,173.63
2022-10-24T02:22:51.675Z,159.43
2022-10-24T02:28:18.362Z,139.03
2022-10-24T02:39:07.389Z,136.18
2022-10-24T02:44:29.898Z,145.82
2022-10-24T02:49:51.994Z,150.43
2022-10-24T02:55:13.968Z,86.38
2022-10-24T03:00:35.896Z,137.45
2022-10-24T03:05:57.787Z,59.92
2022-10-24T03:11:19.697Z,123.30
2022-10-24T03:16:41.894Z,88.85
2022-10-24T03:22:03.843Z,96.05
2022-10-24T03:27:25.699Z,88.70
2022-10-24T03:32:47.919Z,87.30
2022-10-24T03:38:09.890Z,82.15
2022-10-24T03:43:31.838Z,51.42
2022-10-24T03:48:53.713Z,85.55
2022-10-24T03:54:15.630Z,51.90
2022-10-24T03:59:37.991Z,75.45
2022-10-24T04:04:59.798Z,54.58
2022-10-24T04:10:22.219Z,44.53
2022-10-24T04:15:44.051Z,38.95
2022-10-24T04:21:06.499Z,32.97
2022-10-24T04:26:28.619Z,33.63
2022-10-24T04:31:50.554Z,31.92
2022-10-24T04:37:12.384Z,29.50
2022-10-24T04:42:34.248Z,28.38
2022-10-24T04:47:56.064Z,29.33
2022-10-24T04:53:17.953Z,31.92
2022-10-24T04:58:39.817Z,28.85
2022-10-24T05:14:50.518Z,25.15
2022-10-24T05:20:12.528Z,26.63
2022-10-24T05:25:34.400Z,26.95
2022-10-24T05:30:56.508Z,25.88
2022-10-24T05:36:18.342Z,27.50
2022-10-24T05:41:44.681Z,26.88
2022-10-24T05:47:08.932Z,27.75
2022-10-24T05:52:30.740Z,28.27
2022-10-24T05:57:52.618Z,29.88
2022-10-24T06:03:14.496Z,29.40
2022-10-24T06:08:37.681Z,28.80
2022-10-24T06:13:59.536Z,28.75
2022-10-24T06:19:21.366Z,26.10
2022-10-24T06:24:43.207Z,27.98
2022-10-24T06:30:06.392Z,33.53
2022-10-24T06:35:28.267Z,30.10
2022-10-24T06:40:50.103Z,25.88
2022-10-24T06:46:14.941Z,25.33
2022-10-24T06:51:36.762Z,28.05
2022-10-24T06:56:58.582Z,25.98
2022-10-24T07:02:20.911Z,24.27
2022-10-24T07:07:43.765Z,28.27
2022-10-24T07:13:05.832Z,24.90
2022-10-24T07:18:27.849Z,27.20
2022-10-24T07:23:51.193Z,25.33
2022-10-24T07:29:13.042Z,24.45
2022-10-24T07:34:34.892Z,23.83
2022-10-24T07:39:56.791Z,22.98
2022-10-24T07:45:18.637Z,25.33
2022-10-24T07:50:46.008Z,23.23
2022-10-24T07:56:08.734Z,24.95
2022-10-24T08:01:30.602Z,23.30
2022-10-24T08:06:52.699Z,23.35
2022-10-24T08:12:14.528Z,24.80
2022-10-24T08:17:36.530Z,22.83
2022-10-24T08:22:58.415Z,22.67
2022-10-24T08:28:20.748Z,24.50
2022-10-24T08:33:43.578Z,22.83
2022-10-24T08:39:05.648Z,22.73
2022-10-24T08:44:42.958Z,22.38
2022-10-24T08:50:32.449Z,22.65
2022-10-24T08:55:57.271Z,22.88
2022-10-24T09:01:33.082Z,19.65
2022-10-24T09:06:55.776Z,18.37
2022-10-24T09:12:20.674Z,18.05
2022-10-24T09:17:43.998Z,20.67
2022-10-24T09:23:06.520Z,19.23
2022-10-24T09:28:28.462Z,19.83
2022-10-24T09:33:51.930Z,18.02
2022-10-24T09:39:30.863Z,19.13
2022-10-24T09:44:57.486Z,18.50
2022-10-24T09:50:22.236Z,18.95
2022-10-24T09:55:45.205Z,18.63
2022-10-24T10:01:20.477Z,19.42
2022-10-24T10:06:48.467Z,17.75
2022-10-24T10:12:27.121Z,19.17
2022-10-24T10:17:55.157Z,19.27
2022-10-24T10:23:33.016Z,22.83
2022-10-24T10:29:25.729Z,21.00
2022-10-24T10:34:57.756Z,24.23
2022-10-24T10:40:28.629Z,22.58
2022-10-24T10:46:12.211Z,16.55
2022-10-24T10:51:45.798Z,18.05
2022-10-24T10:57:21.801Z,17.45
2022-10-24T11:03:07.269Z,18.02
2022-10-24T11:08:35.123Z,17.00
2022-10-24T11:14:18.626Z,17.60
2022-10-24T11:19:49.909Z,19.65
2022-10-24T11:25:31.462Z,17.40
2022-10-24T11:31:08.075Z,19.08
2022-10-24T11:36:45.109Z,15.38
2022-10-24T11:42:16.376Z,15.23
2022-10-24T11:48:05.052Z,13.90
2022-10-24T11:53:29.622Z,16.50
2022-10-24T11:58:59.557Z,15.68
2022-10-24T12:04:55.005Z,13.60
2022-10-24T12:10:25.986Z,13.97
2022-10-24T12:16:05.962Z,13.93
2022-10-24T12:21:37.678Z,13.45
2022-10-24T12:27:03.197Z,12.57
2022-10-24T12:32:31.192Z,12.50
2022-10-24T12:37:54.296Z,14.57
2022-10-24T12:43:48.422Z,12.27
2022-10-24T12:49:10.158Z,15.43
2022-10-24T12:54:40.701Z,10.23
2022-10-24T13:00:21.943Z,11.40
2022-10-24T13:06:18.946Z,11.50
2022-10-24T13:12:31.272Z,11.20
2022-10-24T13:18:06.467Z,9.55
2022-10-24T13:23:29.135Z,11.30
2022-10-24T13:28:51.259Z,9.43
2022-10-24T13:34:17.908Z,9.70
2022-10-24T13:39:46.703Z,9.95
2022-10-24T13:45:20.530Z,11.35
2022-10-24T13:51:08.243Z,8.07
2022-10-24T13:56:35.403Z,13.30
2022-10-24T14:02:00.275Z,11.10
2022-10-24T14:07:27.621Z,10.43
2022-10-24T14:12:49.565Z,9.38
2022-10-24T14:18:13.782Z,9.25
2022-10-24T14:23:38.779Z,9.40
2022-10-24T14:29:00.691Z,10.20
2022-10-24T14:34:23.451Z,10.55
2022-10-24T14:39:45.462Z,13.63
2022-10-24T14:45:31.442Z,12.32
2022-10-24T14:50:53.315Z,13.05
2022-10-24T14:56:24.330Z,10.82
2022-10-24T15:02:00.796Z,11.57
2022-10-24T15:12:56.522Z,13.57
2022-10-24T15:18:25.700Z,9.07
2022-10-24T15:23:59.403Z,13.45
2022-10-24T15:29:23.283Z,12.13
2022-10-24T15:34:45.449Z,10.38
2022-10-24T15:40:31.836Z,10.40
2022-10-24T15:51:17.377Z,11.35
2022-10-24T15:56:39.254Z,15.32
2022-10-24T16:02:01.869Z,13.68
2022-10-24T16:07:23.767Z,13.85
2022-10-24T16:12:46.043Z,12.80
2022-10-24T16:18:09.010Z,13.45
2022-10-24T16:23:32.406Z,13.85
2022-10-24T16:28:55.143Z,19.25
2022-10-24T16:34:17.091Z,13.07
2022-10-24T16:39:38.952Z,16.95
2022-10-24T16:45:00.790Z,14.43
2022-10-24T16:50:26.849Z,14.68
2022-10-24T16:55:53.511Z,14.63
2022-10-24T17:06:37.843Z,14.73
2022-10-24T17:11:59.833Z,17.30
2022-10-24T17:17:21.815Z,15.77
2022-10-24T17:22:45.585Z,18.33
2022-10-24T17:28:07.548Z,18.58
2022-10-24T17:33:29.706Z,19.27
2022-10-24T17:39:30.857Z,18.70
2022-10-24T17:44:52.831Z,16.77
2022-10-24T17:50:15.649Z,23.02
2022-10-24T17:55:52.744Z,18.10
2022-10-24T18:01:14.610Z,19.80
2022-10-24T18:06:39.452Z,19.02
2022-10-24T18:12:05.274Z,18.15
2022-10-24T18:17:28.019Z,18.65
2022-10-24T18:22:50.637Z,22.90
2022-10-24T18:28:12.490Z,19.20
2022-10-24T18:33:34.380Z,20.77
2022-10-24T18:38:57.639Z,21.23
2022-10-24T18:44:25.511Z,22.67
2022-10-24T18:49:48.397Z,21.83
2022-10-24T18:55:22.508Z,22.30
2022-10-24T19:00:45.737Z,20.58
2022-10-24T19:06:34.598Z,25.95
2022-10-24T19:11:56.631Z,23.63
2022-10-24T19:17:19.849Z,22.50
2022-10-24T19:22:41.786Z,25.33
2022-10-24T19:28:03.695Z,25.17
2022-10-24T19:33:25.539Z,23.70
2022-10-24T19:38:47.400Z,28.23
2022-10-24T19:44:10.618Z,25.98
2022-10-24T19:49:32.405Z,26.63
2022-10-24T19:54:54.213Z,26.75
2022-10-24T20:00:16.295Z,23.88
2022-10-24T20:05:38.140Z,25.88
2022-10-24T20:11:00.089Z,24.42
2022-10-24T20:16:22.481Z,28.60
2022-10-24T20:21:44.402Z,32.25
2022-10-24T20:32:33.022Z,35.45
2022-10-24T20:37:54.903Z,37.42
2022-10-24T20:43:17.521Z,32.20
2022-10-24T20:48:39.434Z,35.53
2022-10-24T20:54:01.413Z,35.85
2022-10-24T20:59:23.241Z,32.15
2022-10-24T21:04:47.031Z,31.77
2022-10-24T21:10:10.105Z,34.15
2022-10-24T21:15:31.992Z,31.60
2022-10-24T21:20:53.853Z,45.80
2022-10-24T21:26:15.661Z,32.03
2022-10-24T21:31:37.533Z,31.25
2022-10-24T21:37:00.466Z,32.42
2022-10-24T21:42:25.119Z,34.15
2022-10-24T21:47:46.939Z,28.35
2022-10-24T21:53:09.654Z,35.83
2022-10-24T21:58:32.477Z,31.20
2022-10-24T22:03:55.353Z,30.52
2022-10-24T22:09:20.540Z,27.92
2022-10-24T22:14:42.388Z,28.15
2022-10-24T22:20:04.560Z,22.67
2022-10-24T22:25:26.392Z,25.70
2022-10-24T22:30:48.649Z,25.15
2022-10-24T22:36:16.172Z,24.08
2022-10-24T22:41:38.429Z,23.17
2022-10-24T22:47:12.213Z,17.50
2022-10-24T22:52:34.311Z,19.27
2022-10-24T22:57:56.373Z,17.85
2022-10-24T23:03:21.152Z,19.05
2022-10-24T23:08:44.292Z,17.67
2022-10-24T23:14:06.638Z,17.95
2022-10-24T23:19:30.462Z,15.57
2022-10-24T23:24:57.523Z,14.63
2022-10-24T23:30:22.465Z,16.10
2022-10-24T23:35:44.579Z,16.05
2022-10-24T23:41:10.729Z,16.27
2022-10-24T23:46:45.054Z,15.30
2022-10-24T23:52:23.634Z,16.17
2022-10-24T23:57:45.758Z,17.38
